sensor_id;sensor_type;location;lat;lon;timestamp;pressure;altitude;pressure_sealevel;temperature;humidity
22830;BME280;11581;51.250;6.778;2023-02-15T00:01:35;102471.34;;;7.31;54.02
22830;BME280;11581;51.250;6.778;2023-02-15T00:04:02;102501.09;;;7.52;54.30
22830;BME280;11581;51.250;6.778;2023-02-15T00:06:31;102512.25;;;7.58;54.80
22830;BME280;11581;51.250;6.778;2023-02-15T00:08:59;102510.63;;;7.56;54.37
22830;BME280;11581;51.250;6.778;2023-02-15T00:11:26;102491.78;;;7.45;54.46
22830;BME280;11581;51.250;6.778;2023-02-15T00:14:19;102504.72;;;7.51;54.46
22830;BME280;11581;51.250;6.778;2023-02-15T00:16:48;102506.59;;;7.49;54.42
22830;BME280;11581;51.250;6.778;2023-02-15T00:19:17;102486.63;;;7.42;54.30
22830;BME280;11581;51.250;6.778;2023-02-15T00:21:46;102485.34;;;7.33;54.74
22830;BME280;11581;51.250;6.778;2023-02-15T00:24:15;102507.13;;;7.40;54.78
22830;BME280;11581;51.250;6.778;2023-02-15T00:26:43;102499.25;;;7.38;54.66
22830;BME280;11581;51.250;6.778;2023-02-15T00:29:11;102503.84;;;7.35;54.92
22830;BME280;11581;51.250;6.778;2023-02-15T00:31:38;102497.78;;;7.33;54.71
22830;BME280;11581;51.250;6.778;2023-02-15T00:34:07;102490.00;;;7.30;54.86
22830;BME280;11581;51.250;6.778;2023-02-15T00:36:37;102490.00;;;7.30;54.61
22830;BME280;11581;51.250;6.778;2023-02-15T00:39:05;102487.50;;;7.27;55.25
22830;BME280;11581;51.250;6.778;2023-02-15T00:41:33;102482.28;;;7.25;54.86
22830;BME280;11581;51.250;6.778;2023-02-15T00:44:00;102489.47;;;7.23;54.90
22830;BME280;11581;51.250;6.778;2023-02-15T00:46:28;102473.13;;;7.15;54.85
22830;BME280;11581;51.250;6.778;2023-02-15T00:48:55;102492.28;;;7.20;54.85
22830;BME280;11581;51.250;6.778;2023-02-15T00:51:22;102487.22;;;7.16;54.92
22830;BME280;11581;51.250;6.778;2023-02-15T00:53:49;102483.81;;;7.14;54.97
22830;BME280;11581;51.250;6.778;2023-02-15T00:56:18;102477.66;;;7.13;55.13
22830;BME280;11581;51.250;6.778;2023-02-15T00:58:45;102479.50;;;7.11;55.39
22830;BME280;11581;51.250;6.778;2023-02-15T01:01:14;102487.56;;;7.10;55.30
22830;BME280;11581;51.250;6.778;2023-02-15T01:03:42;102482.41;;;7.07;55.33
22830;BME280;11581;51.250;6.778;2023-02-15T01:06:09;102470.09;;;7.06;55.01
22830;BME280;11581;51.250;6.778;2023-02-15T01:08:36;102482.63;;;7.04;55.20
22830;BME280;11581;51.250;6.778;2023-02-15T01:11:09;102490.66;;;7.02;55.77
22830;BME280;11581;51.250;6.778;2023-02-15T01:13:39;102464.69;;;6.92;55.57
22830;BME280;11581;51.250;6.778;2023-02-15T01:16:06;102438.72;;;6.65;55.31
22830;BME280;11581;51.250;6.778;2023-02-15T01:18:34;102474.53;;;6.89;55.43
22830;BME280;11581;51.250;6.778;2023-02-15T01:21:09;102457.72;;;6.73;56.43
22830;BME280;11581;51.250;6.778;2023-02-15T01:23:36;102483.28;;;6.92;55.72
22830;BME280;11581;51.250;6.778;2023-02-15T01:26:04;102474.53;;;6.89;55.42
22830;BME280;11581;51.250;6.778;2023-02-15T01:28:31;102358.94;;;6.22;55.69
22830;BME280;11581;51.250;6.778;2023-02-15T01:31:04;102461.06;;;6.77;56.85
22830;BME280;11581;51.250;6.778;2023-02-15T01:33:31;102480.16;;;6.83;55.51
22830;BME280;11581;51.250;6.778;2023-02-15T01:35:59;102454.47;;;6.68;55.72
22830;BME280;11581;51.250;6.778;2023-02-15T01:38:25;102475.97;;;6.79;55.92
22830;BME280;11581;51.250;6.778;2023-02-15T01:40:53;102474.34;;;6.77;56.25
22830;BME280;11581;51.250;6.778;2023-02-15T01:43:47;102465.59;;;6.75;56.70
22830;BME280;11581;51.250;6.778;2023-02-15T01:46:18;102463.03;;;6.73;56.73
22830;BME280;11581;51.250;6.778;2023-02-15T01:48:48;102427.16;;;6.51;56.41
22830;BME280;11581;51.250;6.778;2023-02-15T01:51:17;102458.84;;;6.69;56.62
22830;BME280;11581;51.250;6.778;2023-02-15T01:53:51;102449.50;;;6.62;56.38
22830;BME280;11581;51.250;6.778;2023-02-15T01:56:20;102449.75;;;6.58;56.23
22830;BME280;11581;51.250;6.778;2023-02-15T01:58:49;102443.56;;;6.57;56.37
22830;BME280;11581;51.250;6.778;2023-02-15T02:01:19;102444.19;;;6.62;56.56
22830;BME280;11581;51.250;6.778;2023-02-15T02:03:55;102422.09;;;6.46;57.63
22830;BME280;11581;51.250;6.778;2023-02-15T02:06:24;102449.66;;;6.59;56.63
22830;BME280;11581;51.250;6.778;2023-02-15T02:08:52;102440.84;;;6.59;56.74
22830;BME280;11581;51.250;6.778;2023-02-15T02:11:19;102442.66;;;6.58;56.54
22830;BME280;11581;51.250;6.778;2023-02-15T02:13:46;102426.28;;;6.50;56.45
22830;BME280;11581;51.250;6.778;2023-02-15T02:16:21;102434.94;;;6.54;57.42
22830;BME280;11581;51.250;6.778;2023-02-15T02:18:58;102416.78;;;6.46;57.38
22830;BME280;11581;51.250;6.778;2023-02-15T02:21:52;102429.81;;;6.51;58.25
22830;BME280;11581;51.250;6.778;2023-02-15T02:27:29;102187.66;;;5.06;57.73
22830;BME280;11581;51.250;6.778;2023-02-15T02:30:30;102405.28;;;6.30;58.02
22830;BME280;11581;51.250;6.778;2023-02-15T02:33:18;102414.78;;;6.34;58.23
22830;BME280;11581;51.250;6.778;2023-02-15T02:35:56;102420.53;;;6.42;57.76
22830;BME280;11581;51.250;6.778;2023-02-15T02:38:28;102334.91;;;5.92;57.15
22830;BME280;11581;51.250;6.778;2023-02-15T02:41:08;102355.84;;;5.97;57.57
22830;BME280;11581;51.250;6.778;2023-02-15T02:43:47;102404.97;;;6.36;57.98
22830;BME280;11581;51.250;6.778;2023-02-15T02:46:17;102407.69;;;6.35;57.12
22830;BME280;11581;51.250;6.778;2023-02-15T02:48:48;102407.78;;;6.33;57.52
22830;BME280;11581;51.250;6.778;2023-02-15T02:51:16;102418.44;;;6.32;56.95
22830;BME280;11581;51.250;6.778;2023-02-15T02:53:49;102394.69;;;6.30;57.23
22830;BME280;11581;51.250;6.778;2023-02-15T02:56:21;102312.47;;;5.82;57.71
22830;BME280;11581;51.250;6.778;2023-02-15T02:58:56;102392.25;;;6.26;57.79
22830;BME280;11581;51.250;6.778;2023-02-15T03:01:31;102367.44;;;6.11;57.67
22830;BME280;11581;51.250;6.778;2023-02-15T03:04:04;102377.56;;;6.20;58.37
22830;BME280;11581;51.250;6.778;2023-02-15T03:06:38;102389.78;;;6.23;58.22
22830;BME280;11581;51.250;6.778;2023-02-15T03:09:08;102378.31;;;6.22;57.89
22830;BME280;11581;51.250;6.778;2023-02-15T03:11:41;102370.34;;;6.22;56.74
22830;BME280;11581;51.250;6.778;2023-02-15T03:14:10;102363.84;;;6.12;56.85
22830;BME280;11581;51.250;6.778;2023-02-15T03:16:39;102380.38;;;6.17;57.23
22830;BME280;11581;51.250;6.778;2023-02-15T03:19:13;102368.16;;;6.15;57.75
22830;BME280;11581;51.250;6.778;2023-02-15T03:21:46;102365.56;;;6.13;57.44
22830;BME280;11581;51.250;6.778;2023-02-15T03:24:25;102378.03;;;6.11;57.55
22830;BME280;11581;51.250;6.778;2023-02-15T03:26:56;102343.94;;;5.88;57.33
22830;BME280;11581;51.250;6.778;2023-02-15T03:29:27;102376.50;;;6.07;58.20
22830;BME280;11581;51.250;6.778;2023-02-15T03:31:59;102329.34;;;5.80;57.83
22830;BME280;11581;51.250;6.778;2023-02-15T03:34:29;102344.84;;;5.87;57.70
22830;BME280;11581;51.250;6.778;2023-02-15T03:36:59;102352.66;;;5.90;57.85
22830;BME280;11581;51.250;6.778;2023-02-15T03:39:33;102376.81;;;6.01;58.19
22830;BME280;11581;51.250;6.778;2023-02-15T03:42:07;102381.38;;;5.98;58.27
22830;BME280;11581;51.250;6.778;2023-02-15T03:44:41;102375.25;;;5.97;58.15
22830;BME280;11581;51.250;6.778;2023-02-15T03:47:15;102377.03;;;5.97;58.24
22830;BME280;11581;51.250;6.778;2023-02-15T03:49:50;102371.81;;;5.95;58.36
22830;BME280;11581;51.250;6.778;2023-02-15T03:52:20;102377.72;;;5.83;58.19
22830;BME280;11581;51.250;6.778;2023-02-15T03:54:50;102371.97;;;5.92;57.65
22830;BME280;11581;51.250;6.778;2023-02-15T03:57:20;102296.56;;;5.48;58.11
22830;BME280;11581;51.250;6.778;2023-02-15T04:00:22;102357.94;;;5.90;58.27
22830;BME280;11581;51.250;6.778;2023-02-15T04:03:22;102360.84;;;5.86;59.02
22830;BME280;11581;51.250;6.778;2023-02-15T04:05:51;102343.44;;;5.80;58.25
22830;BME280;11581;51.250;6.778;2023-02-15T04:08:18;102360.00;;;5.85;58.00
22830;BME280;11581;51.250;6.778;2023-02-15T04:10:45;102355.13;;;5.76;58.13
22830;BME280;11581;51.250;6.778;2023-02-15T04:13:22;102347.34;;;5.73;57.85
22830;BME280;11581;51.250;6.778;2023-02-15T04:15:49;102364.56;;;5.82;57.95
22830;BME280;11581;51.250;6.778;2023-02-15T04:18:31;102285.13;;;5.31;57.98
22830;BME280;11581;51.250;6.778;2023-02-15T04:21:17;102361.22;;;5.78;58.30
22830;BME280;11581;51.250;6.778;2023-02-15T04:24:02;102305.09;;;5.38;57.88
22830;BME280;11581;51.250;6.778;2023-02-15T04:26:46;102367.41;;;5.77;58.51
22830;BME280;11581;51.250;6.778;2023-02-15T04:29:14;102360.41;;;5.76;57.36
22830;BME280;11581;51.250;6.778;2023-02-15T04:31:41;102356.97;;;5.74;57.79
22830;BME280;11581;51.250;6.778;2023-02-15T04:34:09;102364.16;;;5.72;57.75
22830;BME280;11581;51.250;6.778;2023-02-15T04:36:40;102369.63;;;5.69;58.36
22830;BME280;11581;51.250;6.778;2023-02-15T04:39:07;102362.63;;;5.68;58.43
22830;BME280;11581;51.250;6.778;2023-02-15T04:41:35;102304.13;;;5.39;58.25
22830;BME280;11581;51.250;6.778;2023-02-15T04:44:02;102344.53;;;5.59;58.24
22830;BME280;11581;51.250;6.778;2023-02-15T04:46:29;102359.25;;;5.65;58.31
22830;BME280;11581;51.250;6.778;2023-02-15T04:48:57;102335.66;;;5.43;58.57
22830;BME280;11581;51.250;6.778;2023-02-15T04:51:24;102305.91;;;5.38;58.47
22830;BME280;11581;51.250;6.778;2023-02-15T04:53:53;102359.47;;;5.60;58.66
22830;BME280;11581;51.250;6.778;2023-02-15T04:56:20;102345.78;;;5.52;58.56
22830;BME280;11581;51.250;6.778;2023-02-15T04:58:47;102361.34;;;5.58;58.29
22830;BME280;11581;51.250;6.778;2023-02-15T05:01:14;102349.03;;;5.57;58.60
22830;BME280;11581;51.250;6.778;2023-02-15T05:03:41;102350.94;;;5.55;58.72
22830;BME280;11581;51.250;6.778;2023-02-15T05:06:08;102350.06;;;5.55;58.59
22830;BME280;11581;51.250;6.778;2023-02-15T05:08:35;102341.25;;;5.54;58.72
22830;BME280;11581;51.250;6.778;2023-02-15T05:11:04;102319.22;;;5.37;58.84
22830;BME280;11581;51.250;6.778;2023-02-15T05:13:30;102341.41;;;5.51;58.40
22830;BME280;11581;51.250;6.778;2023-02-15T05:15:57;102348.59;;;5.49;58.66
22830;BME280;11581;51.250;6.778;2023-02-15T05:18:24;102345.94;;;5.49;58.73
22830;BME280;11581;51.250;6.778;2023-02-15T05:20:51;102229.31;;;4.84;58.67
22830;BME280;11581;51.250;6.778;2023-02-15T05:23:18;102334.66;;;5.46;58.86
22830;BME280;11581;51.250;6.778;2023-02-15T05:25:47;102283.78;;;5.05;58.85
22830;BME280;11581;51.250;6.778;2023-02-15T05:28:33;102304.13;;;5.22;58.93
22830;BME280;11581;51.250;6.778;2023-02-15T05:31:03;102255.94;;;4.98;59.04
22830;BME280;11581;51.250;6.778;2023-02-15T05:33:31;102327.00;;;5.40;58.82
22830;BME280;11581;51.250;6.778;2023-02-15T05:35:58;102296.41;;;5.17;58.98
22830;BME280;11581;51.250;6.778;2023-02-15T05:38:25;102317.91;;;5.28;58.79
22830;BME280;11581;51.250;6.778;2023-02-15T05:40:52;102334.25;;;5.36;59.02
22830;BME280;11581;51.250;6.778;2023-02-15T05:43:21;102331.69;;;5.35;59.02
22830;BME280;11581;51.250;6.778;2023-02-15T05:45:50;102320.25;;;5.34;59.60
22830;BME280;11581;51.250;6.778;2023-02-15T05:48:19;102326.47;;;5.33;59.05
22830;BME280;11581;51.250;6.778;2023-02-15T05:50:56;102296.41;;;5.17;60.03
22830;BME280;11581;51.250;6.778;2023-02-15T05:53:24;102287.38;;;5.04;58.84
22830;BME280;11581;51.250;6.778;2023-02-15T05:55:51;102227.00;;;4.78;58.82
22830;BME280;11581;51.250;6.778;2023-02-15T05:58:19;102315.25;;;5.28;59.17
22830;BME280;11581;51.250;6.778;2023-02-15T06:00:46;102326.78;;;5.27;59.01
22830;BME280;11581;51.250;6.778;2023-02-15T06:03:14;102317.22;;;5.25;59.22
22830;BME280;11581;51.250;6.778;2023-02-15T06:05:41;102242.94;;;4.77;59.14
22830;BME280;11581;51.250;6.778;2023-02-15T06:08:08;102320.84;;;5.22;59.27
22830;BME280;11581;51.250;6.778;2023-02-15T06:10:38;102331.41;;;5.22;59.67
22830;BME280;11581;51.250;6.778;2023-02-15T06:13:05;102341.16;;;5.22;59.13
22830;BME280;11581;51.250;6.778;2023-02-15T06:15:32;102328.31;;;5.14;59.10
22830;BME280;11581;51.250;6.778;2023-02-15T06:17:59;102343.88;;;5.20;59.28
22830;BME280;11581;51.250;6.778;2023-02-15T06:20:27;102261.81;;;4.69;59.42
22830;BME280;11581;51.250;6.778;2023-02-15T06:22:54;102343.03;;;5.20;59.42
22830;BME280;11581;51.250;6.778;2023-02-15T06:25:21;102277.28;;;4.77;59.42
22830;BME280;11581;51.250;6.778;2023-02-15T06:27:49;102344.88;;;5.18;59.24
22830;BME280;11581;51.250;6.778;2023-02-15T06:30:18;102305.31;;;4.98;59.43
22830;BME280;11581;51.250;6.778;2023-02-15T06:32:44;102329.41;;;5.10;59.35
22830;BME280;11581;51.250;6.778;2023-02-15T06:35:11;102302.13;;;4.91;59.90
22830;BME280;11581;51.250;6.778;2023-02-15T06:37:40;102313.91;;;5.03;60.52
22830;BME280;11581;51.250;6.778;2023-02-15T06:40:09;102248.38;;;4.55;60.06
22830;BME280;11581;51.250;6.778;2023-02-15T06:42:35;102302.69;;;4.98;59.76
22830;BME280;11581;51.250;6.778;2023-02-15T06:45:03;102271.72;;;4.83;59.74
22830;BME280;11581;51.250;6.778;2023-02-15T06:47:30;102344.50;;;5.25;59.76
22830;BME280;11581;51.250;6.778;2023-02-15T06:49:56;102350.59;;;5.27;59.35
22830;BME280;11581;51.250;6.778;2023-02-15T06:52:24;102222.88;;;4.54;59.32
22830;BME280;11581;51.250;6.778;2023-02-15T06:54:52;102323.16;;;5.11;59.59
22830;BME280;11581;51.250;6.778;2023-02-15T06:57:19;102334.84;;;5.24;59.46
22830;BME280;11581;51.250;6.778;2023-02-15T06:59:46;102339.22;;;5.25;59.30
22830;BME280;11581;51.250;6.778;2023-02-15T07:02:13;102250.38;;;4.68;59.50
22830;BME280;11581;51.250;6.778;2023-02-15T07:04:40;102203.84;;;4.47;59.48
22830;BME280;11581;51.250;6.778;2023-02-15T07:07:08;102345.28;;;5.27;59.97
22830;BME280;11581;51.250;6.778;2023-02-15T07:09:35;102334.56;;;5.30;59.94
22830;BME280;11581;51.250;6.778;2023-02-15T07:12:04;102338.53;;;5.39;60.95
22830;BME280;11581;51.250;6.778;2023-02-15T07:14:49;102340.50;;;5.52;60.71
22830;BME280;11581;51.250;6.778;2023-02-15T07:17:16;102347.50;;;5.70;61.24
22830;BME280;11581;51.250;6.778;2023-02-15T07:19:43;102306.53;;;5.77;61.08
22830;BME280;11581;51.250;6.778;2023-02-15T07:22:09;102313.75;;;6.08;61.26
22830;BME280;11581;51.250;6.778;2023-02-15T07:24:37;102328.44;;;6.46;61.15
22830;BME280;11581;51.250;6.778;2023-02-15T07:27:06;102322.31;;;6.76;60.51
22830;BME280;11581;51.250;6.778;2023-02-15T07:29:33;102320.38;;;7.10;60.15
22830;BME280;11581;51.250;6.778;2023-02-15T07:32:01;102284.66;;;7.31;59.48
22830;BME280;11581;51.250;6.778;2023-02-15T07:34:28;102303.19;;;7.76;58.95
22830;BME280;11581;51.250;6.778;2023-02-15T07:36:55;102289.06;;;8.03;58.65
22830;BME280;11581;51.250;6.778;2023-02-15T07:39:23;102298.94;;;8.43;58.02
22830;BME280;11581;51.250;6.778;2023-02-15T07:41:50;102303.72;;;8.79;57.30
22830;BME280;11581;51.250;6.778;2023-02-15T07:44:18;102288.97;;;9.14;55.94
22830;BME280;11581;51.250;6.778;2023-02-15T07:46:45;102289.47;;;9.46;55.38
22830;BME280;11581;51.250;6.778;2023-02-15T07:49:12;102268.31;;;9.69;54.72
22830;BME280;11581;51.250;6.778;2023-02-15T07:51:40;102267.78;;;10.02;54.10
22830;BME280;11581;51.250;6.778;2023-02-15T07:54:07;102255.75;;;10.21;53.41
22830;BME280;11581;51.250;6.778;2023-02-15T07:56:34;102194.84;;;10.15;52.86
22830;BME280;11581;51.250;6.778;2023-02-15T07:59:01;102275.13;;;10.84;52.48
22830;BME280;11581;51.250;6.778;2023-02-15T08:01:33;102264.06;;;11.12;51.04
22830;BME280;11581;51.250;6.778;2023-02-15T08:04:01;102270.50;;;11.45;51.11
22830;BME280;11581;51.250;6.778;2023-02-15T08:06:31;102248.97;;;11.70;49.25
22830;BME280;11581;51.250;6.778;2023-02-15T08:08:58;102155.84;;;11.42;49.67
22830;BME280;11581;51.250;6.778;2023-02-15T08:11:27;102182.53;;;11.87;48.88
22830;BME280;11581;51.250;6.778;2023-02-15T08:14:04;102268.31;;;12.61;47.51
22830;BME280;11581;51.250;6.778;2023-02-15T08:16:35;102260.81;;;12.87;46.20
22830;BME280;11581;51.250;6.778;2023-02-15T08:19:05;102268.09;;;13.07;45.84
22830;BME280;11581;51.250;6.778;2023-02-15T08:21:34;102258.66;;;13.23;45.54
22830;BME280;11581;51.250;6.778;2023-02-15T08:24:02;102245.63;;;13.30;45.39
22830;BME280;11581;51.250;6.778;2023-02-15T08:26:30;102252.81;;;13.50;45.43
22830;BME280;11581;51.250;6.778;2023-02-15T08:28:58;102257.84;;;13.64;45.21
22830;BME280;11581;51.250;6.778;2023-02-15T08:31:25;102262.31;;;13.84;44.68
22830;BME280;11581;51.250;6.778;2023-02-15T08:33:55;102248.75;;;14.06;43.52
22830;BME280;11581;51.250;6.778;2023-02-15T08:36:25;102248.59;;;14.28;43.48
22830;BME280;11581;51.250;6.778;2023-02-15T08:38:52;102248.69;;;14.47;42.90
22830;BME280;11581;51.250;6.778;2023-02-15T08:41:23;102254.38;;;14.63;41.32
22830;BME280;11581;51.250;6.778;2023-02-15T08:43:53;102253.28;;;14.75;41.52
22830;BME280;11581;51.250;6.778;2023-02-15T08:46:22;102237.16;;;14.75;41.16
22830;BME280;11581;51.250;6.778;2023-02-15T08:48:49;102249.88;;;14.83;40.76
22830;BME280;11581;51.250;6.778;2023-02-15T08:51:20;102229.78;;;14.77;39.58
22830;BME280;11581;51.250;6.778;2023-02-15T08:53:49;102144.16;;;14.16;40.13
22830;BME280;11581;51.250;6.778;2023-02-15T08:56:16;102178.84;;;14.28;39.95
22830;BME280;11581;51.250;6.778;2023-02-15T08:58:44;102216.84;;;14.33;40.13
22830;BME280;11581;51.250;6.778;2023-02-15T09:01:13;102233.78;;;14.34;39.74
22830;BME280;11581;51.250;6.778;2023-02-15T09:03:43;102238.66;;;14.19;39.74
22830;BME280;11581;51.250;6.778;2023-02-15T09:06:10;102232.94;;;14.03;40.04
22830;BME280;11581;51.250;6.778;2023-02-15T09:08:39;102234.69;;;13.84;39.75
22830;BME280;11581;51.250;6.778;2023-02-15T09:11:11;102237.94;;;13.67;39.85
22830;BME280;11581;51.250;6.778;2023-02-15T09:13:42;102241.97;;;13.52;40.77
22830;BME280;11581;51.250;6.778;2023-02-15T09:16:09;102234.81;;;13.41;41.04
22830;BME280;11581;51.250;6.778;2023-02-15T09:18:38;102235.34;;;13.35;41.47
22830;BME280;11581;51.250;6.778;2023-02-15T09:21:06;102179.50;;;12.99;41.23
22830;BME280;11581;51.250;6.778;2023-02-15T09:23:34;102237.31;;;13.33;41.18
22830;BME280;11581;51.250;6.778;2023-02-15T09:26:05;102193.50;;;13.02;40.94
22830;BME280;11581;51.250;6.778;2023-02-15T09:28:33;102216.19;;;13.19;41.61
22830;BME280;11581;51.250;6.778;2023-02-15T09:31:08;102247.50;;;13.39;41.31
22830;BME280;11581;51.250;6.778;2023-02-15T09:33:37;102227.03;;;13.38;41.90
22830;BME280;11581;51.250;6.778;2023-02-15T09:36:05;102248.09;;;13.63;42.15
22830;BME280;11581;51.250;6.778;2023-02-15T09:38:32;102240.44;;;13.79;41.73
22830;BME280;11581;51.250;6.778;2023-02-15T09:41:12;102241.63;;;13.96;41.15
22830;BME280;11581;51.250;6.778;2023-02-15T09:43:49;102244.28;;;14.16;40.40
22830;BME280;11581;51.250;6.778;2023-02-15T09:46:31;102245.53;;;14.33;39.86
22830;BME280;11581;51.250;6.778;2023-02-15T09:49:09;102237.47;;;14.42;39.70
22830;BME280;11581;51.250;6.778;2023-02-15T09:52:06;102226.31;;;14.37;39.62
22830;BME280;11581;51.250;6.778;2023-02-15T09:54:48;102239.34;;;14.51;39.17
22830;BME280;11581;51.250;6.778;2023-02-15T09:57:26;102234.97;;;14.50;39.21
22830;BME280;11581;51.250;6.778;2023-02-15T10:00:02;102212.19;;;14.35;39.11
22830;BME280;11581;51.250;6.778;2023-02-15T10:02:50;102234.09;;;14.40;39.09
22830;BME280;11581;51.250;6.778;2023-02-15T10:05:27;102239.34;;;14.51;39.49
22830;BME280;11581;51.250;6.778;2023-02-15T10:08:23;102225.78;;;14.53;39.44
22830;BME280;11581;51.250;6.778;2023-02-15T10:11:03;102248.88;;;14.74;39.37
22830;BME280;11581;51.250;6.778;2023-02-15T10:13:55;102225.28;;;14.78;38.81
22830;BME280;11581;51.250;6.778;2023-02-15T10:16:31;102208.91;;;14.81;38.92
22830;BME280;11581;51.250;6.778;2023-02-15T10:19:10;102238.03;;;14.95;38.50
22830;BME280;11581;51.250;6.778;2023-02-15T10:21:54;102236.88;;;14.97;38.48
22830;BME280;11581;51.250;6.778;2023-02-15T10:24:36;102187.81;;;14.76;38.41
22830;BME280;11581;51.250;6.778;2023-02-15T10:27:11;102207.78;;;14.93;38.48
22830;BME280;11581;51.250;6.778;2023-02-15T10:29:45;102225.56;;;15.03;38.45
22830;BME280;11581;51.250;6.778;2023-02-15T10:32:22;102213.13;;;15.02;38.51
22830;BME280;11581;51.250;6.778;2023-02-15T10:34:52;102224.44;;;15.15;39.00
22830;BME280;11581;51.250;6.778;2023-02-15T10:37:47;102227.41;;;15.31;39.24
22830;BME280;11581;51.250;6.778;2023-02-15T10:40:25;102224.47;;;15.53;38.95
22830;BME280;11581;51.250;6.778;2023-02-15T10:43:07;102218.75;;;15.76;38.21
22830;BME280;11581;51.250;6.778;2023-02-15T10:45:48;102213.81;;;16.08;38.53
22830;BME280;11581;51.250;6.778;2023-02-15T10:51:19;102164.25;;;16.55;37.45
22830;BME280;11581;51.250;6.778;2023-02-15T10:54:13;102214.25;;;17.19;37.39
22830;BME280;11581;51.250;6.778;2023-02-15T10:56:50;102205.69;;;17.59;37.05
22830;BME280;11581;51.250;6.778;2023-02-15T10:59:33;102205.44;;;18.04;36.21
22830;BME280;11581;51.250;6.778;2023-02-15T11:02:12;102205.81;;;18.50;35.82
22830;BME280;11581;51.250;6.778;2023-02-15T11:04:55;102197.47;;;18.85;34.85
22830;BME280;11581;51.250;6.778;2023-02-15T11:07:33;102201.56;;;19.29;33.91
22830;BME280;11581;51.250;6.778;2023-02-15T11:10:05;102200.53;;;19.54;33.73
22830;BME280;11581;51.250;6.778;2023-02-15T11:12:40;102117.06;;;19.27;34.17
22830;BME280;11581;51.250;6.778;2023-02-15T11:15:15;102176.06;;;19.94;33.03
22830;BME280;11581;51.250;6.778;2023-02-15T11:17:50;102195.28;;;20.32;32.34
22830;BME280;11581;51.250;6.778;2023-02-15T11:20:23;102191.81;;;20.46;32.11
22830;BME280;11581;51.250;6.778;2023-02-15T11:22:52;102206.31;;;20.83;35.98
22830;BME280;11581;51.250;6.778;2023-02-15T11:25:23;102197.22;;;21.07;31.74
22830;BME280;11581;51.250;6.778;2023-02-15T11:27:52;102189.03;;;21.15;32.33
22830;BME280;11581;51.250;6.778;2023-02-15T11:30:23;102203.94;;;21.33;31.28
22830;BME280;11581;51.250;6.778;2023-02-15T11:32:53;102197.97;;;21.38;30.44
22830;BME280;11581;51.250;6.778;2023-02-15T11:35:26;102140.59;;;21.04;30.20
22830;BME280;11581;51.250;6.778;2023-02-15T11:37:58;102139.25;;;21.08;30.28
22830;BME280;11581;51.250;6.778;2023-02-15T11:40:30;102117.41;;;21.01;30.66
22830;BME280;11581;51.250;6.778;2023-02-15T11:43:04;102176.94;;;21.40;30.02
22830;BME280;11581;51.250;6.778;2023-02-15T11:45:35;102178.72;;;21.47;31.00
22830;BME280;11581;51.250;6.778;2023-02-15T11:48:09;102169.38;;;21.50;29.63
22830;BME280;11581;51.250;6.778;2023-02-15T11:50:38;102147.72;;;21.42;30.63
22830;BME280;11581;51.250;6.778;2023-02-15T11:53:09;102154.66;;;21.59;29.67
22830;BME280;11581;51.250;6.778;2023-02-15T11:55:43;102153.69;;;21.74;30.93
22830;BME280;11581;51.250;6.778;2023-02-15T11:58:21;102158.09;;;21.90;29.80
22830;BME280;11581;51.250;6.778;2023-02-15T12:00:52;102143.94;;;22.09;29.51
22830;BME280;11581;51.250;6.778;2023-02-15T12:03:27;102137.81;;;22.22;28.75
22830;BME280;11581;51.250;6.778;2023-02-15T12:05:58;102117.31;;;22.19;29.21
22830;BME280;11581;51.250;6.778;2023-02-15T12:08:34;102138.97;;;22.27;28.56
22830;BME280;11581;51.250;6.778;2023-02-15T12:11:08;102123.41;;;22.21;28.17
22830;BME280;11581;51.250;6.778;2023-02-15T12:13:55;102121.44;;;22.15;28.81
22830;BME280;11581;51.250;6.778;2023-02-15T12:16:25;102104.50;;;21.98;29.56
22830;BME280;11581;51.250;6.778;2023-02-15T12:18:56;102111.59;;;22.14;28.63
22830;BME280;11581;51.250;6.778;2023-02-15T12:21:28;102112.63;;;22.13;28.63
22830;BME280;11581;51.250;6.778;2023-02-15T12:23:58;102097.09;;;21.92;28.59
22830;BME280;11581;51.250;6.778;2023-02-15T12:26:27;102107.16;;;21.92;28.75
22830;BME280;11581;51.250;6.778;2023-02-15T12:28:58;102110.31;;;21.81;28.48
22830;BME280;11581;51.250;6.778;2023-02-15T12:31:31;101899.50;;;20.43;28.41
22830;BME280;11581;51.250;6.778;2023-02-15T12:34:03;102100.00;;;21.62;28.72
22830;BME280;11581;51.250;6.778;2023-02-15T12:36:41;102103.00;;;21.67;28.80
22830;BME280;11581;51.250;6.778;2023-02-15T12:39:22;102102.94;;;21.75;28.85
22830;BME280;11581;51.250;6.778;2023-02-15T12:42:01;102102.47;;;21.86;28.72
22830;BME280;11581;51.250;6.778;2023-02-15T12:44:31;102063.41;;;21.72;29.01
22830;BME280;11581;51.250;6.778;2023-02-15T12:47:01;102078.38;;;21.98;28.18
22830;BME280;11581;51.250;6.778;2023-02-15T12:49:30;102094.28;;;22.15;28.07
22830;BME280;11581;51.250;6.778;2023-02-15T12:51:59;102091.56;;;22.15;28.25
22830;BME280;11581;51.250;6.778;2023-02-15T12:54:30;102086.88;;;22.09;27.90
22830;BME280;11581;51.250;6.778;2023-02-15T12:56:58;102063.59;;;21.85;28.38
22830;BME280;11581;51.250;6.778;2023-02-15T12:59:26;102085.13;;;21.87;28.42
22830;BME280;11581;51.250;6.778;2023-02-15T13:01:52;102066.47;;;21.69;28.78
22830;BME280;11581;51.250;6.778;2023-02-15T13:04:27;101951.25;;;20.85;28.10
22830;BME280;11581;51.250;6.778;2023-02-15T13:06:59;102057.78;;;21.45;28.25
22830;BME280;11581;51.250;6.778;2023-02-15T13:09:36;102066.88;;;21.52;28.46
22830;BME280;11581;51.250;6.778;2023-02-15T13:12:16;102019.25;;;21.20;28.39
22830;BME280;11581;51.250;6.778;2023-02-15T13:14:45;102072.47;;;21.65;28.94
22830;BME280;11581;51.250;6.778;2023-02-15T13:17:15;102063.88;;;21.61;28.34
22830;BME280;11581;51.250;6.778;2023-02-15T13:19:44;102018.13;;;21.29;28.61
22830;BME280;11581;51.250;6.778;2023-02-15T13:22:18;102039.53;;;21.39;28.49
22830;BME280;11581;51.250;6.778;2023-02-15T13:24:48;102047.03;;;21.51;29.18